Terminal Aerodrome Forecast
Issued by NWS

Home | Current Version | Previous Version | Text Only | Print | Product List | Glossary On
Versions: 1 2 3 4 5 6 7 8 9 10 11 12 13 14 15 16
000
FTUS42 KTAE 220500
TAFDHN
TAF
KDHN 220532Z 2206/2306 07005KT 1SM BR OVC002
     FM221400 09006KT P6SM OVC005
     FM221800 10007KT P6SM OVC012
     FM230000 14004KT 3SM BR OVC005=

USA.gov is the U.S. government's official web portal to all federal, state and local government web resources and services.